createdAt,value
2022-10-01T00:02:15.065Z,7.90
2022-10-01T00:04:44.067Z,7.80
2022-10-01T00:07:15.273Z,7.70
2022-10-01T00:09:43.948Z,7.70
2022-10-01T00:12:15.909Z,7.60
2022-10-01T00:14:45.929Z,8.30
2022-10-01T00:17:14.449Z,7.60
2022-10-01T00:19:42.917Z,7.70
2022-10-01T00:22:11.404Z,8.10
2022-10-01T00:24:40.757Z,7.60
2022-10-01T00:27:10.940Z,7.60
2022-10-01T00:29:39.418Z,7.70
2022-10-01T00:32:09.976Z,7.70
2022-10-01T00:34:38.547Z,7.50
2022-10-01T00:37:07.204Z,7.50
2022-10-01T00:39:35.755Z,7.70
2022-10-01T00:42:06.402Z,8.80
2022-10-01T00:44:36.484Z,8.60
2022-10-01T00:47:12.511Z,7.60
2022-10-01T00:49:42.628Z,7.50
2022-10-01T00:52:15.895Z,7.40
2022-10-01T00:54:48.104Z,7.50
2022-10-01T00:57:19.942Z,7.50
2022-10-01T00:59:49.690Z,7.50
2022-10-01T01:02:20.097Z,7.50
2022-10-01T01:04:49.130Z,7.50
2022-10-01T01:07:18.116Z,7.50
2022-10-01T01:09:48.954Z,8.70
2022-10-01T01:12:38.290Z,7.50
2022-10-01T01:15:16.455Z,7.50
2022-10-01T01:17:55.620Z,7.40
2022-10-01T01:21:01.117Z,7.40
2022-10-01T01:24:15.436Z,7.50
2022-10-01T01:26:54.209Z,7.40
2022-10-01T01:29:29.148Z,7.40
2022-10-01T01:32:02.669Z,7.40
2022-10-01T01:34:34.684Z,7.40
2022-10-01T01:37:12.287Z,7.30
2022-10-01T01:39:44.538Z,8.00
2022-10-01T01:42:21.295Z,7.20
2022-10-01T01:44:54.422Z,7.20
2022-10-01T01:47:25.441Z,7.10
2022-10-01T01:49:54.522Z,7.10
2022-10-01T01:52:23.216Z,7.10
2022-10-01T01:54:52.659Z,7.10
2022-10-01T01:57:21.850Z,7.00
2022-10-01T01:59:51.769Z,7.10
2022-10-01T02:02:23.936Z,7.00
2022-10-01T02:04:55.836Z,7.10
2022-10-01T02:07:51.736Z,7.10
2022-10-01T02:10:31.953Z,7.10
2022-10-01T02:13:24.177Z,7.00
2022-10-01T02:16:04.647Z,7.10
2022-10-01T02:18:40.586Z,7.00
2022-10-01T02:21:18.360Z,7.00
2022-10-01T02:23:53.180Z,6.90
2022-10-01T02:26:24.880Z,7.00
2022-10-01T02:28:58.095Z,7.00
2022-10-01T02:31:31.516Z,7.00
2022-10-01T02:34:03.414Z,6.90
2022-10-01T02:36:33.832Z,7.00
2022-10-01T02:39:04.362Z,6.90
2022-10-01T02:41:37.239Z,6.90
2022-10-01T02:44:09.621Z,6.90
2022-10-01T02:46:45.963Z,7.40
2022-10-01T02:49:15.061Z,6.90
2022-10-01T02:51:53.291Z,6.90
2022-10-01T02:54:27.014Z,6.90
2022-10-01T02:57:13.459Z,6.90
2022-10-01T02:59:42.435Z,7.10
2022-10-01T03:02:13.219Z,6.90
2022-10-01T03:04:42.071Z,6.90
2022-10-01T03:07:11.145Z,7.00
2022-10-01T03:09:40.019Z,6.90
2022-10-01T03:12:10.589Z,8.10
2022-10-01T03:14:40.569Z,7.10
2022-10-01T03:17:09.238Z,6.90
2022-10-01T03:19:39.181Z,7.00
2022-10-01T03:22:08.037Z,7.00
2022-10-01T03:24:36.569Z,7.00
2022-10-01T03:27:05.477Z,7.00
2022-10-01T03:29:34.191Z,7.10
2022-10-01T03:32:03.205Z,7.10
2022-10-01T03:34:31.917Z,7.10
2022-10-01T03:37:02.398Z,7.50
2022-10-01T03:39:31.468Z,7.10
2022-10-01T03:42:00.230Z,7.10
2022-10-01T03:44:29.052Z,8.20
2022-10-01T03:46:57.607Z,7.10
2022-10-01T03:49:26.208Z,7.10
2022-10-01T03:51:54.907Z,7.10
2022-10-01T03:54:25.471Z,7.20
2022-10-01T03:56:53.939Z,7.10
2022-10-01T03:59:22.489Z,7.10
2022-10-01T04:01:50.986Z,7.10
2022-10-01T04:04:19.532Z,7.00
2022-10-01T04:06:48.044Z,7.10
2022-10-01T04:09:16.524Z,7.10
2022-10-01T04:11:46.426Z,7.10
2022-10-01T04:14:14.935Z,7.10
2022-10-01T04:16:43.446Z,7.00
2022-10-01T04:19:11.949Z,7.00
2022-10-01T04:21:40.467Z,8.70
2022-10-01T04:24:09.027Z,7.00
2022-10-01T04:26:37.534Z,7.00
2022-10-01T04:29:07.388Z,7.00
2022-10-01T04:31:36.345Z,7.00
2022-10-01T04:34:05.268Z,7.00
2022-10-01T04:36:34.079Z,7.00
2022-10-01T04:39:03.144Z,7.00
2022-10-01T04:41:33.020Z,7.00
2022-10-01T04:44:02.431Z,7.30
2022-10-01T04:46:32.699Z,7.00
2022-10-01T04:49:01.446Z,7.00
2022-10-01T04:51:30.240Z,7.00
2022-10-01T04:53:58.762Z,6.90
2022-10-01T04:56:27.309Z,6.80
2022-10-01T04:58:56.073Z,6.80
2022-10-01T05:01:25.120Z,7.10
2022-10-01T05:03:56.073Z,6.90
2022-10-01T05:06:25.003Z,8.40
2022-10-01T05:08:54.043Z,7.00
2022-10-01T05:11:22.790Z,7.30
2022-10-01T05:13:51.490Z,7.20
2022-10-01T05:16:20.156Z,7.30
2022-10-01T05:18:48.979Z,7.40
2022-10-01T05:21:19.418Z,7.60
2022-10-01T05:23:48.340Z,7.70
2022-10-01T05:26:17.250Z,7.80
2022-10-01T05:28:46.039Z,7.80
2022-10-01T05:31:16.020Z,7.70
2022-10-01T05:33:44.534Z,7.60
2022-10-01T05:36:13.285Z,7.60
2022-10-01T05:38:43.686Z,7.70
2022-10-01T05:41:12.364Z,7.80
2022-10-01T05:43:41.475Z,7.80
2022-10-01T05:46:10.399Z,7.80
2022-10-01T05:48:39.279Z,7.80
2022-10-01T05:51:08.478Z,7.90
2022-10-01T05:53:38.715Z,8.00
2022-10-01T05:56:10.518Z,8.10
2022-10-01T05:58:39.199Z,8.10
2022-10-01T06:01:07.976Z,8.20
2022-10-01T06:03:36.762Z,8.50
2022-10-01T06:06:05.766Z,8.60
2022-10-01T06:08:35.707Z,8.60
2022-10-01T06:11:05.103Z,8.80
2022-10-01T06:13:37.401Z,8.90
2022-10-01T06:16:06.546Z,9.00
2022-10-01T06:18:35.326Z,9.10
2022-10-01T06:21:04.947Z,9.20
2022-10-01T06:23:33.789Z,9.20
2022-10-01T06:26:05.642Z,9.30
2022-10-01T06:28:36.089Z,9.40
2022-10-01T06:31:05.921Z,9.40
2022-10-01T06:33:34.604Z,9.50
2022-10-01T06:36:05.445Z,9.50
2022-10-01T06:38:34.107Z,9.60
2022-10-01T06:41:04.065Z,9.70
2022-10-01T06:43:34.483Z,9.80
2022-10-01T06:46:06.873Z,9.90
2022-10-01T06:48:36.687Z,10.10
2022-10-01T06:51:06.161Z,10.20
2022-10-01T06:53:34.753Z,10.30
2022-10-01T06:56:08.050Z,10.40
2022-10-01T06:58:37.442Z,10.60
2022-10-01T07:01:07.905Z,10.50
2022-10-01T07:03:36.668Z,10.70
2022-10-01T07:06:08.662Z,10.70
2022-10-01T07:08:37.448Z,10.90
2022-10-01T07:11:06.305Z,10.90
2022-10-01T07:13:34.843Z,11.00
2022-10-01T07:16:04.996Z,11.20
2022-10-01T07:18:34.994Z,11.50
2022-10-01T07:21:03.639Z,11.50
2022-10-01T07:23:32.412Z,11.40
2022-10-01T07:26:01.193Z,11.40
2022-10-01T07:28:30.062Z,11.50
2022-10-01T07:31:01.851Z,11.50
2022-10-01T07:33:30.847Z,11.60
2022-10-01T07:36:03.671Z,11.90
2022-10-01T07:38:33.449Z,12.00
2022-10-01T07:41:04.593Z,12.10
2022-10-01T07:43:34.703Z,12.30
2022-10-01T07:46:05.066Z,12.60
2022-10-01T07:48:33.817Z,12.70
2022-10-01T07:51:03.869Z,12.90
2022-10-01T07:53:32.649Z,13.10
2022-10-01T07:56:02.356Z,13.20
2022-10-01T07:58:31.004Z,14.20
2022-10-01T08:01:03.683Z,13.40
2022-10-01T08:03:32.503Z,13.40
2022-10-01T08:06:03.422Z,13.70
2022-10-01T08:08:33.628Z,13.70
2022-10-01T08:11:03.692Z,13.90
2022-10-01T08:13:32.423Z,14.50
2022-10-01T08:16:04.955Z,14.00
2022-10-01T08:18:34.313Z,14.10
2022-10-01T08:21:03.490Z,14.00
2022-10-01T08:23:35.009Z,14.40
2022-10-01T08:26:07.063Z,14.50
2022-10-01T08:28:36.062Z,14.60
2022-10-01T08:31:09.067Z,14.50
2022-10-01T08:33:38.555Z,14.90
2022-10-01T08:36:08.681Z,15.20
2022-10-01T08:38:40.206Z,15.20
2022-10-01T08:41:23.051Z,15.30
2022-10-01T08:43:53.386Z,15.30
2022-10-01T08:46:26.127Z,15.30
2022-10-01T08:49:03.492Z,15.40
2022-10-01T08:51:36.408Z,15.40
2022-10-01T08:54:18.142Z,15.20
2022-10-01T08:56:48.345Z,15.20
2022-10-01T08:59:31.057Z,15.20
2022-10-01T09:02:00.374Z,15.20
2022-10-01T09:04:30.532Z,15.40
2022-10-01T09:07:10.855Z,15.60
2022-10-01T09:09:50.074Z,15.70
2022-10-01T09:12:30.150Z,15.60
2022-10-01T09:15:15.794Z,15.90
2022-10-01T09:17:59.525Z,16.20
2022-10-01T09:20:31.347Z,16.30
2022-10-01T09:23:17.276Z,16.50
2022-10-01T09:25:51.326Z,16.60
2022-10-01T09:28:22.727Z,16.60
2022-10-01T09:30:57.350Z,16.90
2022-10-01T09:33:32.231Z,17.00
2022-10-01T09:36:12.105Z,16.80
2022-10-01T09:38:43.088Z,17.00
2022-10-01T09:41:14.764Z,17.10
2022-10-01T09:43:46.057Z,16.90
2022-10-01T09:46:17.636Z,17.00
2022-10-01T09:48:54.902Z,16.90
2022-10-01T09:51:34.818Z,17.10
2022-10-01T09:54:14.102Z,17.10
2022-10-01T09:56:48.720Z,16.80
2022-10-01T09:59:22.247Z,16.90
2022-10-01T10:01:54.236Z,16.80
2022-10-01T10:04:24.320Z,16.90
2022-10-01T10:07:00.736Z,17.00
2022-10-01T10:09:31.902Z,17.00
2022-10-01T10:12:02.663Z,17.10
2022-10-01T10:14:35.161Z,16.90
2022-10-01T10:17:08.402Z,16.90
2022-10-01T10:19:38.468Z,16.70
2022-10-01T10:22:24.978Z,16.70
2022-10-01T10:24:54.575Z,16.70
2022-10-01T10:27:27.544Z,16.60
2022-10-01T10:30:08.692Z,16.80
2022-10-01T10:32:37.727Z,16.70
2022-10-01T10:35:13.324Z,16.60
2022-10-01T10:37:48.431Z,16.40
2022-10-01T10:40:21.505Z,16.50
2022-10-01T10:42:55.157Z,16.80
2022-10-01T10:45:31.381Z,16.80
2022-10-01T10:48:00.839Z,17.10
2022-10-01T10:50:33.058Z,17.10
2022-10-01T10:53:12.616Z,17.00
2022-10-01T10:55:41.317Z,17.10
2022-10-01T10:58:16.340Z,16.90
2022-10-01T11:00:48.491Z,16.80
2022-10-01T11:03:18.933Z,16.60
2022-10-01T11:05:51.561Z,16.80
2022-10-01T11:08:25.018Z,16.70
2022-10-01T11:11:04.294Z,16.70
2022-10-01T11:13:49.615Z,16.80
2022-10-01T11:16:37.581Z,16.80
2022-10-01T11:19:22.914Z,16.90
2022-10-01T11:22:03.655Z,16.80
2022-10-01T11:24:55.925Z,16.90
2022-10-01T11:27:36.234Z,16.80
2022-10-01T11:30:24.874Z,16.80
2022-10-01T11:33:06.121Z,16.80
2022-10-01T11:35:49.325Z,16.60
2022-10-01T11:38:49.030Z,16.70
2022-10-01T11:41:25.122Z,16.80
2022-10-01T11:43:56.057Z,16.70
2022-10-01T11:46:35.262Z,16.70
2022-10-01T11:49:18.080Z,16.90
2022-10-01T11:51:56.876Z,16.90
2022-10-01T12:07:07.005Z,17.20
2022-10-01T12:09:45.516Z,17.50
2022-10-01T12:12:20.563Z,17.30
2022-10-01T12:14:55.531Z,17.30
2022-10-01T12:17:28.765Z,17.20
2022-10-01T12:20:00.206Z,17.20
2022-10-01T12:37:12.994Z,17.10
2022-10-01T12:39:58.566Z,17.70
2022-10-01T12:42:51.572Z,17.50
2022-10-01T12:45:29.071Z,17.30
2022-10-01T12:48:06.607Z,17.40
2022-10-01T12:50:49.801Z,17.40
2022-10-01T12:53:32.398Z,17.40
2022-10-01T12:56:14.009Z,17.30
2022-10-01T12:59:00.165Z,17.30
2022-10-01T13:01:40.990Z,17.10
2022-10-01T13:04:27.029Z,17.00
2022-10-01T13:07:23.642Z,17.20
2022-10-01T13:10:04.427Z,16.90
2022-10-01T13:12:46.665Z,16.80
2022-10-01T13:15:18.884Z,16.80
2022-10-01T13:17:53.534Z,16.70
2022-10-01T13:20:29.092Z,16.50
2022-10-01T13:23:02.406Z,16.50
2022-10-01T13:25:39.755Z,16.40
2022-10-01T13:28:16.476Z,16.50
2022-10-01T13:30:56.643Z,16.50
2022-10-01T13:33:26.949Z,16.70
2022-10-01T13:35:58.811Z,16.70
2022-10-01T13:38:40.561Z,16.70
2022-10-01T13:41:21.204Z,16.90
2022-10-01T13:43:56.876Z,16.90
2022-10-01T13:46:29.483Z,16.80
2022-10-01T13:49:04.939Z,16.70
2022-10-01T13:51:37.933Z,16.60
2022-10-01T13:54:18.595Z,16.80
2022-10-01T13:56:49.153Z,16.90
2022-10-01T13:59:33.094Z,16.90
2022-10-01T14:02:02.987Z,16.90
2022-10-01T14:04:38.786Z,16.90
2022-10-01T14:07:17.607Z,16.80
2022-10-01T14:09:49.681Z,16.80
2022-10-01T14:12:44.637Z,16.80
2022-10-01T14:15:36.400Z,16.70
2022-10-01T14:18:09.081Z,16.60
2022-10-01T14:20:47.934Z,16.60
2022-10-01T14:23:19.704Z,16.40
2022-10-01T14:25:55.695Z,16.30
2022-10-01T14:28:44.305Z,16.20
2022-10-01T14:31:22.663Z,16.00
2022-10-01T14:34:22.527Z,16.00
2022-10-01T14:36:52.984Z,15.70
2022-10-01T14:39:23.211Z,15.10
2022-10-01T14:41:53.860Z,14.30
2022-10-01T14:44:26.950Z,13.60
2022-10-01T14:46:57.424Z,12.90
2022-10-01T14:49:28.942Z,12.50
2022-10-01T14:52:01.912Z,12.10
2022-10-01T14:54:33.123Z,12.00
2022-10-01T14:57:04.790Z,12.00
2022-10-01T14:59:37.893Z,11.90
2022-10-01T15:02:19.130Z,11.90
2022-10-01T15:04:48.865Z,11.90
2022-10-01T15:07:18.239Z,11.90
2022-10-01T15:09:47.694Z,11.90
2022-10-01T15:12:18.221Z,11.90
2022-10-01T15:14:48.925Z,12.00
2022-10-01T15:17:22.383Z,12.00
2022-10-01T15:19:53.644Z,11.90
2022-10-01T15:22:25.251Z,11.90
2022-10-01T15:24:57.066Z,11.90
2022-10-01T15:27:26.052Z,11.90
2022-10-01T15:29:58.811Z,11.90
2022-10-01T15:32:29.291Z,11.90
2022-10-01T15:35:01.886Z,11.90
2022-10-01T15:37:33.103Z,12.00
2022-10-01T15:40:02.962Z,12.00
2022-10-01T15:42:34.022Z,11.90
2022-10-01T15:45:26.640Z,11.90
2022-10-01T15:47:58.069Z,12.00
2022-10-01T15:50:29.217Z,11.90
2022-10-01T15:53:03.791Z,11.90
2022-10-01T15:55:36.001Z,11.90
2022-10-01T15:58:09.703Z,11.90
2022-10-01T16:00:53.717Z,12.00
2022-10-01T16:03:27.377Z,12.00
2022-10-01T16:05:57.391Z,11.90
2022-10-01T16:08:34.241Z,11.90
2022-10-01T16:11:16.479Z,11.90
2022-10-01T16:13:46.737Z,11.90
2022-10-01T16:16:32.121Z,11.90
2022-10-01T16:19:21.802Z,11.90
2022-10-01T16:22:15.983Z,11.90
2022-10-01T16:24:46.815Z,11.90
2022-10-01T16:27:18.159Z,11.90
2022-10-01T16:29:53.840Z,11.90
2022-10-01T16:32:24.284Z,11.90
2022-10-01T16:34:53.500Z,11.90
2022-10-01T16:37:22.839Z,11.90
2022-10-01T16:39:51.622Z,11.90
2022-10-01T16:42:24.676Z,11.90
2022-10-01T16:44:53.766Z,11.80
2022-10-01T16:47:23.987Z,11.80
2022-10-01T16:49:53.299Z,11.80
2022-10-01T16:52:22.010Z,11.80
2022-10-01T16:54:50.711Z,11.80
2022-10-01T16:57:19.277Z,11.80
2022-10-01T16:59:48.179Z,11.80
2022-10-01T17:02:16.791Z,11.80
2022-10-01T17:04:47.033Z,11.80
2022-10-01T17:07:15.673Z,11.80
2022-10-01T17:09:44.430Z,11.80
2022-10-01T17:12:13.749Z,11.80
2022-10-01T17:14:42.722Z,11.80
2022-10-01T17:17:11.201Z,11.80
2022-10-01T17:19:39.711Z,11.80
2022-10-01T17:22:09.779Z,11.80
2022-10-01T17:24:38.280Z,11.70
2022-10-01T17:27:06.782Z,11.80
2022-10-01T17:29:35.225Z,11.70
2022-10-01T17:32:04.016Z,11.70
2022-10-01T17:34:33.200Z,11.70
2022-10-01T17:37:01.693Z,11.70
2022-10-01T17:39:32.843Z,11.60
2022-10-01T17:42:01.370Z,11.60
2022-10-01T17:44:29.843Z,11.60
2022-10-01T17:46:58.402Z,11.60
2022-10-01T17:49:26.884Z,11.50
2022-10-01T17:51:55.476Z,11.50
2022-10-01T17:54:24.370Z,11.50
2022-10-01T17:56:55.135Z,11.50
2022-10-01T17:59:23.629Z,11.40
2022-10-01T18:01:52.738Z,11.40
2022-10-01T18:04:21.581Z,11.50
2022-10-01T18:06:52.240Z,11.40
2022-10-01T18:09:21.586Z,11.40
2022-10-01T18:11:50.466Z,11.40
2022-10-01T18:14:20.644Z,11.40
2022-10-01T18:16:49.540Z,11.30
2022-10-01T18:22:13.636Z,11.40
2022-10-01T18:24:42.770Z,11.30
2022-10-01T18:27:11.281Z,11.30
2022-10-01T18:29:41.698Z,11.30
2022-10-01T18:32:16.952Z,11.30
2022-10-01T18:34:50.928Z,11.20
2022-10-01T18:37:27.327Z,11.20
2022-10-01T18:40:04.253Z,11.20
2022-10-01T18:42:44.406Z,11.20
2022-10-01T18:45:19.873Z,11.20
2022-10-01T18:48:06.756Z,11.20
2022-10-01T18:50:44.656Z,11.20
2022-10-01T18:53:32.662Z,11.20
2022-10-01T18:56:22.819Z,11.20
2022-10-01T18:59:24.736Z,11.30
2022-10-01T19:02:09.186Z,11.30
2022-10-01T19:05:26.830Z,11.30
2022-10-01T19:08:06.975Z,11.30
2022-10-01T19:10:41.106Z,11.30
2022-10-01T19:13:16.106Z,11.30
2022-10-01T19:16:00.364Z,11.30
2022-10-01T19:18:58.831Z,11.30
2022-10-01T19:21:36.593Z,11.30
2022-10-01T19:24:36.851Z,11.30
2022-10-01T19:27:17.272Z,11.30
2022-10-01T19:29:59.130Z,11.40
2022-10-01T19:32:34.536Z,11.40
2022-10-01T19:35:12.770Z,11.40
2022-10-01T19:37:48.533Z,11.40
2022-10-01T19:40:25.451Z,11.40
2022-10-01T19:43:02.136Z,11.40
2022-10-01T19:45:40.011Z,11.50
2022-10-01T19:48:18.131Z,11.50
2022-10-01T19:50:52.801Z,11.50
2022-10-01T19:53:28.006Z,11.50
2022-10-01T19:56:00.576Z,11.50
2022-10-01T19:58:30.694Z,11.50
2022-10-01T20:01:02.804Z,11.50
2022-10-01T20:03:39.414Z,11.60
2022-10-01T20:06:14.825Z,11.50
2022-10-01T20:08:52.665Z,11.50
2022-10-01T20:11:28.449Z,11.50
2022-10-01T20:14:10.338Z,11.50
2022-10-01T20:16:43.887Z,11.60
2022-10-01T20:19:23.632Z,11.60
2022-10-01T20:21:59.844Z,11.60
2022-10-01T20:24:41.908Z,11.50
2022-10-01T20:27:22.382Z,11.60
2022-10-01T20:29:59.791Z,11.60
2022-10-01T20:32:35.293Z,11.60
2022-10-01T20:35:17.761Z,11.50
2022-10-01T20:37:56.947Z,11.50
2022-10-01T20:40:30.608Z,11.50
2022-10-01T20:43:06.767Z,11.50
2022-10-01T20:45:36.710Z,11.50
2022-10-01T20:48:12.425Z,11.50
2022-10-01T20:50:45.954Z,11.50
2022-10-01T20:53:22.112Z,11.40
2022-10-01T20:55:57.254Z,11.40
2022-10-01T20:58:30.509Z,11.50
2022-10-01T21:01:05.343Z,11.40
2022-10-01T21:03:37.488Z,11.40
2022-10-01T21:06:10.939Z,11.50
2022-10-01T21:08:50.763Z,11.50
2022-10-01T21:11:28.774Z,11.50
2022-10-01T21:14:05.859Z,11.50
2022-10-01T21:17:06.634Z,11.40
2022-10-01T21:19:49.991Z,11.50
2022-10-01T21:22:31.134Z,11.50
2022-10-01T21:25:06.588Z,11.40
2022-10-01T21:27:54.842Z,11.40
2022-10-01T21:30:24.076Z,11.40
2022-10-01T21:33:12.443Z,11.40
2022-10-01T21:35:53.468Z,11.40
2022-10-01T21:38:30.595Z,11.40
2022-10-01T21:41:15.714Z,11.40
2022-10-01T21:44:11.364Z,11.50
2022-10-01T21:46:48.368Z,11.50
2022-10-01T21:49:26.335Z,11.50
2022-10-01T21:52:04.692Z,11.50
2022-10-01T21:54:49.636Z,11.50
2022-10-01T21:57:38.181Z,11.50
2022-10-01T22:00:18.053Z,11.60
2022-10-01T22:03:07.536Z,11.50
2022-10-01T22:05:40.493Z,11.50
2022-10-01T22:08:21.870Z,11.50
2022-10-01T22:10:53.834Z,11.50
2022-10-01T22:13:26.132Z,11.50
2022-10-01T22:16:00.301Z,11.50
2022-10-01T22:18:37.786Z,11.50
2022-10-01T22:21:11.756Z,11.50
2022-10-01T22:23:45.912Z,11.50
2022-10-01T22:26:19.253Z,11.50
2022-10-01T22:28:51.231Z,11.60
2022-10-01T22:31:26.085Z,11.60
2022-10-01T22:34:00.749Z,11.50
2022-10-01T22:36:36.431Z,11.60
2022-10-01T22:39:11.584Z,11.50
2022-10-01T22:41:45.368Z,11.60
2022-10-01T22:44:16.468Z,11.60
2022-10-01T22:47:12.217Z,11.60
2022-10-01T22:49:50.925Z,11.60
2022-10-01T22:52:29.160Z,11.60
2022-10-01T22:55:10.500Z,11.60
2022-10-01T22:57:56.178Z,11.50
2022-10-01T23:00:25.654Z,11.60
2022-10-01T23:03:04.623Z,11.60
2022-10-01T23:05:42.777Z,11.60
2022-10-01T23:08:20.412Z,11.50
2022-10-01T23:11:01.147Z,11.50
2022-10-01T23:13:39.249Z,11.60
2022-10-01T23:16:15.873Z,11.50
2022-10-01T23:18:53.973Z,11.50
2022-10-01T23:21:34.129Z,11.40
2022-10-01T23:24:15.669Z,11.40
2022-10-01T23:26:50.849Z,11.40
2022-10-01T23:29:33.733Z,11.30
2022-10-01T23:32:14.053Z,11.40
2022-10-01T23:34:52.354Z,11.30
2022-10-01T23:37:56.738Z,11.30
2022-10-01T23:40:31.832Z,11.30
2022-10-01T23:43:04.621Z,11.30
2022-10-01T23:45:38.656Z,11.30
2022-10-01T23:48:15.694Z,11.30
2022-10-01T23:50:52.524Z,11.30
2022-10-01T23:53:23.863Z,11.30
2022-10-01T23:56:18.759Z,11.30
2022-10-01T23:58:53.381Z,11.30
